createdAt,value
2023-03-07T00:02:08.879Z,80.96
2023-03-07T00:04:36.873Z,80.65
2023-03-07T00:07:04.847Z,80.28
2023-03-07T00:09:32.448Z,80.22
2023-03-07T00:12:00.128Z,81.16
2023-03-07T00:14:28.908Z,80.95
2023-03-07T00:16:56.524Z,81.41
2023-03-07T00:19:24.566Z,81.59
2023-03-07T00:21:52.201Z,81.53
2023-03-07T00:24:19.802Z,80.86
2023-03-07T00:26:47.606Z,81.48
2023-03-07T00:29:15.247Z,80.89
2023-03-07T00:31:43.314Z,80.91
2023-03-07T00:34:11.057Z,80.35
2023-03-07T00:36:38.972Z,80.91
2023-03-07T00:39:07.123Z,80.66
2023-03-07T00:41:35.398Z,81.27
2023-03-07T00:44:03.025Z,81.22
2023-03-07T00:46:30.702Z,80.99
2023-03-07T00:48:58.325Z,80.87
2023-03-07T00:51:25.937Z,81.08
2023-03-07T00:53:53.592Z,80.81
2023-03-07T00:56:21.214Z,81.26
2023-03-07T00:58:48.843Z,80.86
2023-03-07T01:01:16.522Z,80.73
2023-03-07T01:03:44.290Z,80.84
2023-03-07T01:06:12.246Z,80.60
2023-03-07T01:08:39.851Z,81.00
2023-03-07T01:11:07.474Z,80.76
2023-03-07T01:13:35.032Z,80.86
2023-03-07T01:16:02.624Z,81.26
2023-03-07T01:18:30.938Z,81.38
2023-03-07T01:20:58.532Z,80.87
2023-03-07T01:23:26.165Z,81.14
2023-03-07T01:25:53.824Z,80.95
2023-03-07T01:28:21.428Z,80.58
2023-03-07T01:30:49.361Z,80.72
2023-03-07T01:33:17.004Z,80.66
2023-03-07T01:35:44.628Z,80.60
2023-03-07T01:38:12.213Z,80.64
2023-03-07T01:40:40.880Z,81.03
2023-03-07T01:43:08.489Z,81.03
2023-03-07T01:45:36.093Z,81.15
2023-03-07T01:48:04.086Z,81.22
2023-03-07T01:50:31.662Z,81.31
2023-03-07T01:52:59.409Z,80.90
2023-03-07T01:55:27.362Z,81.23
2023-03-07T01:57:54.966Z,80.41
2023-03-07T02:00:25.586Z,80.68
2023-03-07T02:02:53.503Z,80.34
2023-03-07T02:05:21.125Z,80.42
2023-03-07T02:07:49.068Z,80.61
2023-03-07T02:10:16.688Z,80.68
2023-03-07T02:12:44.246Z,80.37
2023-03-07T02:15:11.814Z,80.59
2023-03-07T02:17:39.606Z,80.65
2023-03-07T02:20:07.551Z,80.68
2023-03-07T02:22:35.091Z,80.53
2023-03-07T02:25:02.998Z,80.49
2023-03-07T02:27:30.540Z,80.55
2023-03-07T02:29:58.307Z,80.31
2023-03-07T02:32:26.296Z,80.66
2023-03-07T02:34:53.861Z,80.42
2023-03-07T02:37:21.425Z,80.94
2023-03-07T02:39:49.017Z,80.54
2023-03-07T02:42:16.603Z,80.27
2023-03-07T02:44:44.177Z,80.20
2023-03-07T02:47:12.112Z,80.78
2023-03-07T02:49:39.704Z,80.22
2023-03-07T02:52:07.315Z,80.69
2023-03-07T02:54:34.941Z,80.48
2023-03-07T02:57:02.546Z,80.85
2023-03-07T02:59:30.120Z,80.61
2023-03-07T03:01:57.869Z,80.41
2023-03-07T03:04:25.521Z,80.60
2023-03-07T03:06:53.163Z,80.28
2023-03-07T03:09:21.264Z,80.91
2023-03-07T03:11:48.842Z,80.24
2023-03-07T03:14:16.567Z,80.49
2023-03-07T03:16:44.192Z,80.89
2023-03-07T03:19:11.775Z,80.20
2023-03-07T03:21:39.936Z,80.85
2023-03-07T03:24:07.549Z,80.61
2023-03-07T03:26:35.100Z,80.78
2023-03-07T03:29:02.679Z,80.60
2023-03-07T03:31:30.634Z,80.44
2023-03-07T03:34:10.802Z,81.23
2023-03-07T03:36:38.454Z,81.20
2023-03-07T03:39:10.961Z,81.10
2023-03-07T03:41:38.793Z,81.30
2023-03-07T03:44:06.496Z,81.04
2023-03-07T03:46:34.537Z,80.67
2023-03-07T03:49:02.140Z,81.11
2023-03-07T03:51:29.760Z,80.64
2023-03-07T03:53:57.765Z,81.03
2023-03-07T03:56:25.345Z,81.31
2023-03-07T03:58:52.943Z,81.11
2023-03-07T04:01:20.498Z,81.02
2023-03-07T04:03:48.096Z,81.37
2023-03-07T04:06:15.871Z,80.86
2023-03-07T04:08:44.459Z,81.74
2023-03-07T04:11:12.422Z,81.75
2023-03-07T04:13:40.294Z,81.08
2023-03-07T04:16:07.954Z,81.56
2023-03-07T04:18:35.573Z,81.17
2023-03-07T04:21:03.170Z,81.26
2023-03-07T04:23:31.361Z,81.58
2023-03-07T04:25:58.966Z,81.40
2023-03-07T04:28:26.606Z,81.42
2023-03-07T04:30:54.158Z,81.53
2023-03-07T04:33:21.744Z,81.00
2023-03-07T04:35:50.073Z,81.19
2023-03-07T04:38:17.718Z,81.47
2023-03-07T04:40:45.273Z,80.72
2023-03-07T04:43:13.061Z,80.99
2023-03-07T04:45:40.675Z,81.12
2023-03-07T04:48:08.693Z,81.60
2023-03-07T04:50:36.375Z,80.95
2023-03-07T04:53:03.964Z,81.00
2023-03-07T04:55:31.918Z,81.64
2023-03-07T04:57:59.517Z,81.13
2023-03-07T05:00:27.509Z,81.42
2023-03-07T05:02:55.401Z,81.05
2023-03-07T05:05:23.028Z,81.52
2023-03-07T05:07:50.747Z,80.96
2023-03-07T05:10:18.304Z,81.00
2023-03-07T05:12:46.279Z,81.11
2023-03-07T05:15:13.853Z,81.04
2023-03-07T05:17:41.696Z,81.55
2023-03-07T05:20:10.580Z,81.34
2023-03-07T05:22:38.191Z,81.03
2023-03-07T05:25:06.231Z,81.67
2023-03-07T05:27:33.858Z,81.43
2023-03-07T05:30:01.479Z,81.27
2023-03-07T05:32:29.323Z,80.75
2023-03-07T05:34:56.977Z,81.06
2023-03-07T05:37:24.954Z,81.54
2023-03-07T05:39:52.849Z,81.57
2023-03-07T05:42:20.452Z,81.09
2023-03-07T05:44:48.018Z,81.68
2023-03-07T05:47:15.613Z,81.40
2023-03-07T05:49:43.635Z,81.55
2023-03-07T05:52:11.250Z,81.84
2023-03-07T05:54:38.854Z,81.47
2023-03-07T05:57:06.808Z,81.61
2023-03-07T05:59:34.484Z,81.77
2023-03-07T06:02:02.459Z,81.62
2023-03-07T06:04:30.138Z,81.81
2023-03-07T06:06:57.826Z,82.07
2023-03-07T06:09:26.119Z,81.66
2023-03-07T06:11:53.887Z,82.15
2023-03-07T06:14:21.965Z,81.86
2023-03-07T06:16:49.554Z,81.70
2023-03-07T06:19:17.174Z,82.11
2023-03-07T06:21:44.983Z,81.74
2023-03-07T06:24:12.900Z,81.66
2023-03-07T06:26:40.967Z,81.88
2023-03-07T06:29:08.582Z,81.78
2023-03-07T06:31:36.232Z,81.77
2023-03-07T06:34:04.067Z,81.73
2023-03-07T06:36:31.750Z,82.56
2023-03-07T06:38:59.712Z,82.54
2023-03-07T06:41:27.441Z,82.22
2023-03-07T06:43:55.010Z,82.34
2023-03-07T06:46:23.945Z,82.41
2023-03-07T06:48:52.396Z,82.32
2023-03-07T06:51:20.399Z,81.93
2023-03-07T06:53:48.507Z,82.40
2023-03-07T06:56:16.281Z,82.29
2023-03-07T06:58:44.027Z,82.04
2023-03-07T07:01:11.694Z,82.46
2023-03-07T07:03:39.772Z,82.41
2023-03-07T07:06:07.423Z,81.78
2023-03-07T07:08:35.326Z,82.57
2023-03-07T07:11:03.052Z,82.26
2023-03-07T07:13:30.679Z,82.38
2023-03-07T07:15:59.197Z,82.21
2023-03-07T07:18:26.973Z,81.95
2023-03-07T07:20:54.719Z,82.03
2023-03-07T07:23:22.352Z,82.10
2023-03-07T07:25:50.088Z,82.08
2023-03-07T07:28:18.159Z,82.23
2023-03-07T07:30:45.918Z,82.14
2023-03-07T07:33:13.804Z,81.92
2023-03-07T07:35:41.754Z,82.03
2023-03-07T07:38:09.501Z,81.55
2023-03-07T07:40:37.606Z,81.75
2023-03-07T07:43:05.336Z,81.77
2023-03-07T07:45:33.081Z,82.04
2023-03-07T07:48:01.032Z,82.07
2023-03-07T07:50:28.724Z,81.75
2023-03-07T07:52:57.147Z,81.71
2023-03-07T07:55:25.832Z,82.00
2023-03-07T07:57:53.556Z,82.03
2023-03-07T08:00:21.639Z,82.27
2023-03-07T08:02:51.127Z,82.25
2023-03-07T08:05:19.177Z,81.78
2023-03-07T08:07:46.828Z,82.44
2023-03-07T08:10:16.170Z,82.46
2023-03-07T08:12:43.859Z,82.24
2023-03-07T08:15:11.936Z,81.83
2023-03-07T08:17:40.217Z,82.16
2023-03-07T08:20:08.701Z,82.12
2023-03-07T08:22:36.338Z,82.22
2023-03-07T08:25:04.820Z,81.74
2023-03-07T08:27:32.444Z,81.91
2023-03-07T08:30:00.522Z,81.82
2023-03-07T08:32:28.274Z,82.38
2023-03-07T08:34:56.089Z,82.31
2023-03-07T08:37:24.833Z,81.88
2023-03-07T08:39:52.725Z,81.72
2023-03-07T08:42:21.106Z,81.70
2023-03-07T08:44:48.815Z,81.79
2023-03-07T08:47:16.913Z,82.48
2023-03-07T08:49:45.190Z,82.25
2023-03-07T08:52:13.099Z,82.45
2023-03-07T08:54:41.345Z,81.65
2023-03-07T08:57:09.081Z,82.15
2023-03-07T08:59:36.886Z,81.51
2023-03-07T09:02:04.965Z,81.95
2023-03-07T09:04:33.341Z,81.57
2023-03-07T09:07:01.828Z,81.39
2023-03-07T09:09:29.929Z,82.29
2023-03-07T09:11:57.772Z,81.44
2023-03-07T09:14:25.772Z,81.79
2023-03-07T09:16:53.870Z,81.37
2023-03-07T09:19:22.289Z,82.03
2023-03-07T09:21:50.505Z,81.58
2023-03-07T09:24:18.652Z,81.79
2023-03-07T09:26:46.830Z,81.58
2023-03-07T09:29:14.668Z,81.19
2023-03-07T09:31:44.851Z,81.85
2023-03-07T09:34:12.749Z,81.77
2023-03-07T09:36:40.557Z,81.45
2023-03-07T09:39:08.730Z,81.34
2023-03-07T09:41:36.522Z,81.30
2023-03-07T09:44:05.174Z,81.57
2023-03-07T09:46:33.214Z,81.34
2023-03-07T09:49:01.019Z,81.88
2023-03-07T09:51:29.729Z,81.76
2023-03-07T09:53:58.396Z,81.48
2023-03-07T09:56:27.483Z,81.95
2023-03-07T09:58:55.388Z,81.18
2023-03-07T10:01:23.473Z,81.67
2023-03-07T10:03:51.830Z,81.50
2023-03-07T10:06:20.137Z,81.87
2023-03-07T10:08:48.593Z,81.48
2023-03-07T10:11:16.557Z,81.95
2023-03-07T10:13:44.373Z,82.29
2023-03-07T10:16:12.674Z,81.81
2023-03-07T10:18:40.494Z,82.58
2023-03-07T10:21:08.966Z,82.33
2023-03-07T10:23:37.093Z,81.96
2023-03-07T10:26:05.070Z,82.09
2023-03-07T10:28:33.301Z,82.70
2023-03-07T10:31:01.505Z,83.08
2023-03-07T10:33:29.590Z,83.04
2023-03-07T10:35:57.500Z,83.25
2023-03-07T10:38:25.353Z,82.98
2023-03-07T10:40:53.327Z,82.72
2023-03-07T10:43:21.242Z,82.70
2023-03-07T10:45:49.468Z,83.37
2023-03-07T10:48:17.811Z,83.45
2023-03-07T10:50:45.726Z,82.97
2023-03-07T10:53:13.658Z,82.73
2023-03-07T10:55:41.594Z,83.30
2023-03-07T10:58:10.137Z,82.82
2023-03-07T11:00:38.259Z,82.82
2023-03-07T11:03:06.305Z,82.63
2023-03-07T11:05:34.488Z,82.38
2023-03-07T11:08:03.393Z,82.14
2023-03-07T11:10:32.156Z,82.60
2023-03-07T11:13:00.002Z,82.40
2023-03-07T11:15:27.936Z,82.92
2023-03-07T11:17:56.098Z,82.46
2023-03-07T11:20:23.998Z,82.56
2023-03-07T11:22:51.961Z,82.19
2023-03-07T11:25:19.935Z,82.63
2023-03-07T11:27:47.884Z,81.79
2023-03-07T11:30:16.721Z,82.13
2023-03-07T11:32:45.030Z,82.23
2023-03-07T11:35:13.089Z,82.40
2023-03-07T11:37:41.142Z,82.22
2023-03-07T11:40:08.957Z,81.81
2023-03-07T11:42:36.857Z,81.53
2023-03-07T11:45:05.128Z,81.94
2023-03-07T11:47:34.272Z,81.99
2023-03-07T11:50:02.090Z,81.71
2023-03-07T11:52:30.351Z,81.61
2023-03-07T11:54:59.186Z,81.83
2023-03-07T11:57:27.100Z,81.76
2023-03-07T11:59:55.483Z,81.89
2023-03-07T12:02:23.312Z,81.50
2023-03-07T12:04:52.948Z,81.32
2023-03-07T12:07:21.768Z,81.75
2023-03-07T12:09:52.517Z,81.95
2023-03-07T12:12:20.847Z,82.03
2023-03-07T12:14:49.007Z,82.08
2023-03-07T12:17:17.253Z,81.45
2023-03-07T12:19:45.310Z,81.84
2023-03-07T12:22:13.548Z,81.69
2023-03-07T12:24:41.898Z,81.49
2023-03-07T12:27:09.824Z,80.86
2023-03-07T12:29:37.873Z,81.47
2023-03-07T12:32:06.168Z,80.78
2023-03-07T12:34:34.321Z,81.03
2023-03-07T12:37:02.728Z,80.90
2023-03-07T12:39:31.081Z,81.38
2023-03-07T12:41:59.080Z,80.95
2023-03-07T12:44:27.451Z,80.85
2023-03-07T12:46:55.386Z,80.26
2023-03-07T12:49:23.620Z,80.98
2023-03-07T12:51:51.876Z,80.51
2023-03-07T12:54:19.916Z,80.95
2023-03-07T12:56:47.790Z,80.64
2023-03-07T12:59:15.847Z,81.42
2023-03-07T13:01:44.210Z,81.38
2023-03-07T13:04:12.131Z,80.70
2023-03-07T13:06:42.004Z,81.03
2023-03-07T13:09:12.471Z,81.38
2023-03-07T13:11:40.472Z,81.19
2023-03-07T13:14:09.453Z,81.04
2023-03-07T13:16:37.521Z,81.01
2023-03-07T13:19:05.493Z,81.40
2023-03-07T13:21:34.191Z,81.03
2023-03-07T13:24:02.395Z,81.48
2023-03-07T13:26:30.700Z,80.63
2023-03-07T13:28:58.641Z,81.19
2023-03-07T13:31:29.334Z,81.16
2023-03-07T13:33:57.277Z,80.73
2023-03-07T13:36:25.390Z,81.11
2023-03-07T13:38:53.903Z,80.86
2023-03-07T13:41:21.891Z,80.18
2023-03-07T13:43:49.981Z,80.41
2023-03-07T13:46:18.944Z,81.15
2023-03-07T13:48:46.943Z,81.07
2023-03-07T13:51:15.591Z,80.74
2023-03-07T13:53:43.775Z,80.60
2023-03-07T13:56:11.576Z,80.41
2023-03-07T13:58:40.121Z,80.40
2023-03-07T14:01:08.008Z,80.70
2023-03-07T14:03:36.769Z,80.29
2023-03-07T14:06:04.930Z,80.76
2023-03-07T14:08:33.929Z,81.23
2023-03-07T14:11:01.875Z,80.90
2023-03-07T14:13:29.953Z,80.53
2023-03-07T14:15:58.368Z,80.42
2023-03-07T14:18:26.251Z,80.67
2023-03-07T14:20:54.376Z,80.80
2023-03-07T14:23:22.431Z,80.62
2023-03-07T14:25:52.266Z,81.09
2023-03-07T14:28:20.971Z,80.26
2023-03-07T14:30:48.906Z,81.00
2023-03-07T14:33:16.752Z,80.42
2023-03-07T14:35:45.045Z,80.95
2023-03-07T14:38:13.013Z,80.31
2023-03-07T14:40:40.838Z,80.94
2023-03-07T14:43:08.913Z,80.41
2023-03-07T14:45:36.873Z,80.51
2023-03-07T14:48:05.040Z,80.99
2023-03-07T14:50:33.257Z,80.62
2023-03-07T14:53:02.558Z,80.85
2023-03-07T14:55:30.589Z,80.85
2023-03-07T14:57:58.657Z,81.07
2023-03-07T15:00:27.508Z,80.61
2023-03-07T15:02:55.403Z,80.62
2023-03-07T15:05:25.780Z,80.68
2023-03-07T15:07:55.077Z,80.49
2023-03-07T15:10:23.101Z,81.16
2023-03-07T15:12:51.418Z,81.38
2023-03-07T15:15:19.796Z,81.11
2023-03-07T15:17:48.012Z,80.41
2023-03-07T15:20:16.010Z,81.17
2023-03-07T15:22:43.956Z,80.93
2023-03-07T15:25:12.306Z,80.52
2023-03-07T15:27:40.661Z,81.07
2023-03-07T15:30:09.046Z,80.20
2023-03-07T15:32:36.981Z,80.82
2023-03-07T15:35:05.094Z,80.84
2023-03-07T15:37:35.120Z,80.99
2023-03-07T15:40:02.997Z,81.04
2023-03-07T15:42:31.606Z,81.29
2023-03-07T15:44:59.436Z,81.42
2023-03-07T15:47:27.382Z,80.84
2023-03-07T15:49:55.711Z,80.90
2023-03-07T15:52:23.484Z,80.81
2023-03-07T15:54:52.141Z,81.21
2023-03-07T15:57:20.278Z,80.89
2023-03-07T15:59:48.236Z,81.67
2023-03-07T16:02:18.573Z,81.88
2023-03-07T16:04:46.601Z,81.62
2023-03-07T16:07:15.100Z,81.69
2023-03-07T16:09:43.041Z,81.42
2023-03-07T16:12:11.135Z,81.31
2023-03-07T16:14:39.301Z,82.03
2023-03-07T16:17:07.291Z,81.43
2023-03-07T16:19:36.085Z,81.64
2023-03-07T16:22:04.874Z,81.76
2023-03-07T16:24:32.815Z,81.48
2023-03-07T16:27:00.871Z,81.78
2023-03-07T16:29:28.782Z,81.70
2023-03-07T16:31:57.530Z,81.49
2023-03-07T16:34:25.601Z,81.56
2023-03-07T16:36:53.473Z,81.70
2023-03-07T16:39:21.639Z,81.74
2023-03-07T16:41:49.704Z,81.98
2023-03-07T16:44:18.579Z,81.69
2023-03-07T16:46:46.487Z,82.50
2023-03-07T16:49:14.448Z,82.00
2023-03-07T16:51:42.798Z,81.31
2023-03-07T16:54:10.769Z,81.51
2023-03-07T16:56:39.345Z,81.56
2023-03-07T16:59:08.546Z,81.92
2023-03-07T17:01:36.653Z,81.48
2023-03-07T17:04:04.890Z,82.08
2023-03-07T17:06:39.235Z,81.71
2023-03-07T17:09:08.078Z,81.83
2023-03-07T17:11:35.954Z,81.70
2023-03-07T17:14:03.880Z,82.00
2023-03-07T17:16:32.170Z,82.13
2023-03-07T17:19:00.250Z,82.33
2023-03-07T17:21:28.483Z,82.43
2023-03-07T17:23:56.558Z,81.96
2023-03-07T17:26:24.525Z,82.11
2023-03-07T17:28:53.029Z,82.15
2023-03-07T17:31:21.204Z,82.80
2023-03-07T17:33:50.396Z,82.42
2023-03-07T17:36:18.445Z,82.42
2023-03-07T17:38:46.588Z,82.71
2023-03-07T17:41:14.827Z,82.66
2023-03-07T17:43:42.608Z,82.17
2023-03-07T17:46:11.221Z,82.02
2023-03-07T17:48:39.660Z,81.75
2023-03-07T17:51:07.663Z,82.19
2023-03-07T17:53:36.188Z,82.03
2023-03-07T17:56:04.078Z,81.85
2023-03-07T17:58:32.474Z,82.29
2023-03-07T18:01:00.705Z,82.64
2023-03-07T18:03:28.702Z,82.67
2023-03-07T18:05:56.891Z,82.83
2023-03-07T18:08:25.605Z,82.71
2023-03-07T18:10:54.327Z,82.71
2023-03-07T18:13:24.578Z,82.61
2023-03-07T18:15:52.719Z,82.07
2023-03-07T18:18:20.910Z,82.13
2023-03-07T18:20:48.754Z,82.24
2023-03-07T18:23:17.284Z,81.97
2023-03-07T18:25:45.167Z,82.49
2023-03-07T18:28:13.119Z,82.65
2023-03-07T18:30:41.493Z,82.52
2023-03-07T18:33:09.775Z,82.38
2023-03-07T18:35:37.713Z,81.91
2023-03-07T18:38:05.802Z,82.10
2023-03-07T18:40:33.643Z,82.32
2023-03-07T18:43:01.928Z,82.09
2023-03-07T18:45:30.034Z,82.19
2023-03-07T18:47:58.426Z,82.35
2023-03-07T18:50:26.385Z,81.96
2023-03-07T18:52:54.506Z,82.12
2023-03-07T18:55:23.063Z,82.39
2023-03-07T18:57:51.086Z,82.14
2023-03-07T19:00:20.173Z,82.03
2023-03-07T19:02:48.122Z,82.35
2023-03-07T19:05:16.279Z,81.60
2023-03-07T19:07:45.095Z,82.24
2023-03-07T19:10:12.966Z,82.06
2023-03-07T19:12:41.626Z,82.74
2023-03-07T19:15:09.641Z,81.58
2023-03-07T19:17:38.161Z,82.28
2023-03-07T19:20:06.100Z,82.42
2023-03-07T19:22:34.202Z,82.16
2023-03-07T19:25:02.458Z,82.18
2023-03-07T19:27:32.408Z,82.43
2023-03-07T19:30:01.092Z,81.80
2023-03-07T19:32:29.754Z,82.11
2023-03-07T19:34:57.639Z,81.94
2023-03-07T19:37:25.893Z,82.04
2023-03-07T19:39:54.171Z,81.93
2023-03-07T19:42:22.187Z,81.98
2023-03-07T19:44:50.471Z,81.92
2023-03-07T19:47:18.994Z,82.68
2023-03-07T19:49:48.912Z,81.96
2023-03-07T19:52:17.171Z,82.55
2023-03-07T19:54:45.698Z,82.30
2023-03-07T19:57:16.447Z,82.05
2023-03-07T19:59:45.344Z,81.75
2023-03-07T20:02:14.518Z,82.12
2023-03-07T20:04:42.873Z,82.41
2023-03-07T20:07:11.796Z,82.49
2023-03-07T20:09:39.938Z,82.44
2023-03-07T20:12:07.785Z,81.96
2023-03-07T20:14:38.630Z,81.86
2023-03-07T20:17:06.497Z,82.18
2023-03-07T20:19:34.382Z,82.32
2023-03-07T20:22:02.586Z,82.39
2023-03-07T20:24:30.932Z,82.00
2023-03-07T20:26:59.061Z,82.21
2023-03-07T20:29:27.226Z,82.54
2023-03-07T20:31:55.139Z,82.57
2023-03-07T20:34:25.347Z,82.39
2023-03-07T20:36:55.081Z,82.66
2023-03-07T20:39:22.938Z,82.21
2023-03-07T20:41:50.968Z,82.51
2023-03-07T20:44:19.238Z,82.69
2023-03-07T20:46:48.495Z,82.88
2023-03-07T20:49:16.450Z,82.27
2023-03-07T20:51:44.856Z,82.24
2023-03-07T20:54:12.789Z,82.13
2023-03-07T20:56:40.786Z,81.98
2023-03-07T20:59:09.683Z,82.93
2023-03-07T21:01:37.634Z,82.73
2023-03-07T21:04:06.942Z,82.56
2023-03-07T21:06:35.161Z,82.23
2023-03-07T21:09:06.554Z,82.40
2023-03-07T21:11:34.708Z,82.62
2023-03-07T21:14:02.758Z,82.75
2023-03-07T21:16:31.549Z,82.77
2023-03-07T21:19:01.506Z,82.62
2023-03-07T21:21:29.798Z,81.96
2023-03-07T21:23:58.419Z,82.68
2023-03-07T21:26:26.266Z,82.79
2023-03-07T21:28:54.748Z,82.52
2023-03-07T21:31:22.632Z,83.09
2023-03-07T21:33:50.571Z,82.77
2023-03-07T21:36:18.820Z,82.59
2023-03-07T21:38:46.765Z,82.16
2023-03-07T21:41:15.259Z,82.51
2023-03-07T21:43:43.238Z,82.96
2023-03-07T21:46:11.175Z,81.93
2023-03-07T21:48:39.482Z,82.55
2023-03-07T21:51:07.367Z,82.81
2023-03-07T21:53:35.931Z,82.51
2023-03-07T21:56:03.792Z,82.28
2023-03-07T21:58:31.670Z,82.41
2023-03-07T22:00:59.599Z,82.15
2023-03-07T22:03:27.547Z,82.33
2023-03-07T22:05:57.383Z,82.15
2023-03-07T22:08:25.341Z,82.54
2023-03-07T22:10:53.262Z,82.35
2023-03-07T22:13:21.080Z,82.59
2023-03-07T22:15:49.248Z,82.36
2023-03-07T22:18:18.193Z,82.36
2023-03-07T22:20:46.061Z,82.53
2023-03-07T22:23:13.902Z,82.23
2023-03-07T22:25:41.860Z,82.77
2023-03-07T22:28:09.713Z,82.52
2023-03-07T22:30:37.998Z,82.79
2023-03-07T22:33:05.850Z,82.35
2023-03-07T22:35:33.794Z,82.83
2023-03-07T22:38:02.961Z,82.73
2023-03-07T22:40:30.825Z,82.24
2023-03-07T22:42:59.101Z,82.52
2023-03-07T22:45:26.794Z,82.70
2023-03-07T22:47:55.180Z,82.10
2023-03-07T22:50:23.410Z,82.22
2023-03-07T22:52:51.242Z,82.05
2023-03-07T22:55:19.259Z,82.63
2023-03-07T22:57:47.027Z,82.74
2023-03-07T23:00:14.712Z,82.41
2023-03-07T23:02:42.435Z,82.45
2023-03-07T23:05:10.130Z,82.33
2023-03-07T23:07:38.102Z,82.26
2023-03-07T23:10:05.812Z,81.90
2023-03-07T23:12:33.565Z,82.53
2023-03-07T23:15:01.584Z,81.88
2023-03-07T23:17:29.328Z,82.10
2023-03-07T23:19:57.394Z,82.36
2023-03-07T23:22:25.690Z,82.45
2023-03-07T23:24:53.447Z,81.88
2023-03-07T23:27:21.099Z,82.09
2023-03-07T23:29:48.734Z,82.32
2023-03-07T23:32:16.831Z,81.68
2023-03-07T23:34:44.519Z,81.90
2023-03-07T23:37:12.148Z,81.86
2023-03-07T23:39:39.901Z,82.22
2023-03-07T23:42:07.598Z,82.25
2023-03-07T23:44:36.352Z,81.47
2023-03-07T23:47:03.994Z,81.81
2023-03-07T23:49:31.686Z,81.69
2023-03-07T23:51:59.317Z,81.72
2023-03-07T23:54:26.902Z,82.01
2023-03-07T23:56:55.187Z,82.17
2023-03-07T23:59:22.799Z,82.03
